Time;durP1;ratioP1;P1;durP2;ratioP2;P2;SDS_P1;SDS_P2;PMS_P1;PMS_P2;Temp;Humidity;BMP_temperature;BMP_pressure;BME280_temperature;BME280_humidity;BME280_pressure;Samples;Min_cycle;Max_cycle;Signal;HPM_P1;HPM_P2
2024/04/11 00:00:29;;;;;;;6.55;2.58;;;;;;;7.80;100.00;99265.50;5402843;26;20018;-82
2024/04/11 00:02:57;;;;;;;5.65;2.65;;;;;;;7.84;100.00;99266.63;5396371;26;20027;-82
2024/04/11 00:05:25;;;;;;;7.40;2.83;;;;;;;7.85;100.00;99258.28;5406709;26;20060;-81
2024/04/11 00:07:53;;;;;;;5.78;2.60;;;;;;;7.65;100.00;99262.69;5410017;26;20007;-83
2024/04/11 00:10:20;;;;;;;5.88;2.15;;;;;;;7.81;100.00;99272.53;5406955;26;20030;-82
2024/04/11 00:12:48;;;;;;;6.78;2.83;;;;;;;7.82;100.00;99268.78;5410763;26;20523;-81
2024/04/11 00:15:15;;;;;;;8.10;2.40;;;;;;;7.77;100.00;99276.81;5367336;26;20321;-80
2024/04/11 00:17:43;;;;;;;6.85;2.63;;;;;;;7.72;100.00;99263.28;5396635;26;20069;-81
2024/04/11 00:20:11;;;;;;;8.10;2.70;;;;;;;7.76;100.00;99250.94;5407464;26;20103;-80
2024/04/11 00:22:37;;;;;;;5.47;2.63;;;;;;;7.86;100.00;99267.19;5407346;26;20014;-81
2024/04/11 00:25:05;;;;;;;5.15;2.30;;;;;;;7.93;100.00;99248.91;5395970;26;20000;-80
2024/04/11 00:27:33;;;;;;;6.15;2.80;;;;;;;7.83;100.00;99248.81;5409531;26;20004;-80
2024/04/11 00:30:02;;;;;;;7.75;2.83;;;;;;;7.68;100.00;99264.88;5399485;26;20081;-81
2024/04/11 00:32:29;;;;;;;6.45;2.47;;;;;;;7.39;100.00;99251.66;5400859;26;20092;-81
2024/04/11 00:34:57;;;;;;;5.47;2.50;;;;;;;7.60;100.00;99260.75;5380737;26;20076;-81
2024/04/11 00:37:25;;;;;;;4.63;2.28;;;;;;;7.69;100.00;99263.81;5399722;26;20015;-82
2024/04/11 00:39:52;;;;;;;8.48;2.80;;;;;;;7.69;100.00;99256.50;5401012;26;20039;-82
2024/04/11 00:42:19;;;;;;;5.75;2.60;;;;;;;7.68;100.00;99246.00;5406670;26;20052;-82
2024/04/11 00:44:47;;;;;;;7.00;2.60;;;;;;;7.21;100.00;99248.50;5408495;26;20073;-81
2024/04/11 00:47:16;;;;;;;6.38;2.67;;;;;;;7.45;100.00;99247.97;5410607;26;20012;-83
2024/04/11 00:49:46;;;;;;;9.05;2.80;;;;;;;7.54;100.00;99254.50;5388045;26;20011;-81
2024/04/11 00:52:14;;;;;;;5.35;2.47;;;;;;;7.57;100.00;99244.28;5405275;26;20011;-82
2024/04/11 00:54:41;;;;;;;7.47;2.55;;;;;;;7.62;100.00;99244.31;5382996;26;20022;-81
2024/04/11 00:57:09;;;;;;;5.43;2.70;;;;;;;7.63;100.00;99243.25;5411354;26;20003;-81
2024/04/11 00:59:40;;;;;;;9.18;3.17;;;;;;;7.60;100.00;99225.72;5398498;26;20014;-80
2024/04/11 01:02:11;;;;;;;8.15;3.05;;;;;;;7.72;100.00;99237.13;5389335;26;20014;-81
2024/04/11 01:04:38;;;;;;;8.23;3.70;;;;;;;7.65;100.00;99236.53;5397858;26;20012;-82
2024/04/11 01:07:08;;;;;;;7.05;3.05;;;;;;;7.71;100.00;99234.72;5405083;26;20012;-81
2024/04/11 01:09:43;;;;;;;10.65;3.85;;;;;;;7.78;100.00;99230.72;5375297;26;20011;-81
2024/04/11 01:12:16;;;;;;;9.43;3.55;;;;;;;7.77;100.00;99231.78;5410638;26;19999;-80
2024/04/11 01:14:48;;;;;;;11.10;3.70;;;;;;;7.82;100.00;99241.81;5390917;26;20001;-82
2024/04/11 01:17:17;;;;;;;8.95;3.53;;;;;;;7.79;100.00;99234.25;5401456;26;20000;-82
2024/04/11 01:19:47;;;;;;;8.70;3.40;;;;;;;7.79;100.00;99229.66;5384883;26;20004;-81
2024/04/11 01:22:15;;;;;;;8.63;3.38;;;;;;;7.80;100.00;99223.19;5379795;26;20037;-81
2024/04/11 01:24:43;;;;;;;9.88;3.65;;;;;;;7.82;100.00;99228.34;5395051;26;20349;-81
2024/04/11 01:27:14;;;;;;;9.00;3.40;;;;;;;7.75;100.00;99214.25;5390802;26;20010;-83
2024/04/11 01:29:45;;;;;;;9.07;3.30;;;;;;;7.89;100.00;99237.84;5402552;26;20044;-80
2024/04/11 01:32:13;;;;;;;8.95;3.50;;;;;;;7.87;100.00;99231.88;5397967;26;20359;-82
2024/04/11 01:34:40;;;;;;;9.38;3.53;;;;;;;7.86;100.00;99226.75;5390328;26;20008;-84
2024/04/11 01:37:11;;;;;;;8.98;3.30;;;;;;;7.86;100.00;99224.03;5387052;26;19992;-83
2024/04/11 01:39:38;;;;;;;9.73;3.70;;;;;;;7.82;100.00;99214.88;5401170;26;20000;-83
2024/04/11 01:42:05;;;;;;;9.30;3.58;;;;;;;7.84;100.00;99223.50;5411539;26;20076;-80
2024/04/11 01:44:32;;;;;;;5.28;2.92;;;;;;;7.90;100.00;99223.25;5385205;26;20008;-81
2024/04/11 01:46:59;;;;;;;8.82;3.30;;;;;;;7.84;100.00;99224.31;5396639;26;20004;-80
2024/04/11 01:49:31;;;;;;;5.45;2.95;;;;;;;7.83;100.00;99229.94;5403054;26;20344;-82
2024/04/11 01:52:09;;;;;;;7.72;2.72;;;;;;;7.77;100.00;99231.00;5397731;26;20604;-79
2024/04/11 01:54:40;;;;;;;6.95;3.40;;;;;;;7.61;100.00;99216.59;5401762;26;20399;-81
2024/04/11 01:57:10;;;;;;;4.28;2.55;;;;;;;7.53;100.00;99217.88;5393408;26;19999;-81
2024/04/11 01:59:37;;;;;;;5.80;2.78;;;;;;;7.67;100.00;99229.00;5401411;26;20447;-81
2024/04/11 02:02:08;;;;;;;5.72;2.90;;;;;;;7.64;100.00;99237.59;5392447;26;20014;-83
2024/04/11 02:04:35;;;;;;;6.50;2.80;;;;;;;7.50;100.00;99225.63;5365261;26;20019;-81
2024/04/11 02:07:04;;;;;;;8.10;2.72;;;;;;;7.42;100.00;99236.88;5390993;26;20003;-80
2024/04/11 02:09:34;;;;;;;8.43;2.95;;;;;;;7.29;100.00;99215.72;5389295;26;20076;-80
2024/04/11 02:12:02;;;;;;;8.75;2.70;;;;;;;7.32;100.00;99220.63;5400815;26;20000;-83
2024/04/11 02:14:29;;;;;;;4.70;2.53;;;;;;;7.32;100.00;99236.78;5406335;26;20056;-82
2024/04/11 02:16:56;;;;;;;5.38;2.78;;;;;;;7.24;100.00;99229.97;5390233;26;20008;-81
2024/04/11 02:19:26;;;;;;;7.75;2.83;;;;;;;7.31;100.00;99235.13;5393457;26;20008;-83
2024/04/11 02:21:53;;;;;;;7.00;2.75;;;;;;;7.23;100.00;99249.06;5391456;26;20349;-81
2024/04/11 02:24:25;;;;;;;11.38;2.60;;;;;;;7.18;100.00;99247.13;5399885;26;20007;-82
2024/04/11 02:26:52;;;;;;;9.32;2.60;;;;;;;7.19;100.00;99246.09;5426316;26;20007;-82
2024/04/11 02:29:20;;;;;;;6.00;2.92;;;;;;;7.21;100.00;99240.44;5414563;26;20021;-82
2024/04/11 02:31:47;;;;;;;6.05;2.70;;;;;;;7.19;100.00;99242.56;5413965;26;19999;-80
2024/04/11 02:34:14;;;;;;;8.85;2.53;;;;;;;6.96;100.00;99248.22;5407168;26;20011;-81
2024/04/11 02:36:41;;;;;;;6.60;2.75;;;;;;;6.73;100.00;99235.84;5403909;26;20084;-81
2024/04/11 02:39:12;;;;;;;9.63;2.97;;;;;;;6.58;100.00;99246.44;5397135;26;20055;-82
2024/04/11 02:41:41;;;;;;;7.18;2.88;;;;;;;6.55;100.00;99249.63;5397648;26;20008;-82
2024/04/11 02:44:09;;;;;;;6.13;3.03;;;;;;;6.17;100.00;99232.41;5401361;26;20023;-80
2024/04/11 02:46:36;;;;;;;6.97;2.67;;;;;;;6.32;100.00;99256.03;5402599;26;20008;-80
2024/04/11 02:49:05;;;;;;;9.02;3.03;;;;;;;6.14;100.00;99245.56;5397551;26;20014;-81
2024/04/11 02:51:35;;;;;;;5.90;2.90;;;;;;;6.26;100.00;99240.88;5404554;26;20034;-82
2024/04/11 02:54:05;;;;;;;6.43;3.00;;;;;;;6.33;100.00;99241.50;5397972;26;19996;-80
2024/04/11 02:56:33;;;;;;;6.45;2.60;;;;;;;6.47;100.00;99250.03;5397105;26;20009;-82
2024/04/11 02:59:00;;;;;;;9.88;2.65;;;;;;;6.09;100.00;99246.25;5412867;26;20068;-81
2024/04/11 03:01:31;;;;;;;5.47;2.47;;;;;;;6.08;100.00;99255.41;5407603;26;20065;-82
2024/04/11 03:04:01;;;;;;;5.78;2.80;;;;;;;6.01;100.00;99257.44;5408089;26;20185;-81
2024/04/11 03:06:31;;;;;;;6.68;2.58;;;;;;;6.15;100.00;99253.34;5406090;26;20003;-79
2024/04/11 03:09:00;;;;;;;10.95;2.65;;;;;;;6.15;100.00;99256.03;5391723;26;20005;-79
2024/04/11 03:11:28;;;;;;;5.65;2.63;;;;;;;6.28;100.00;99250.31;5412902;26;20003;-80
2024/04/11 03:13:57;;;;;;;7.30;3.00;;;;;;;6.31;100.00;99254.41;5400437;26;20410;-82
2024/04/11 03:16:27;;;;;;;5.65;2.60;;;;;;;6.34;100.00;99256.59;5408613;26;20027;-82
2024/04/11 03:18:55;;;;;;;10.40;2.88;;;;;;;6.28;100.00;99241.44;5407931;26;20004;-80
2024/04/11 03:21:23;;;;;;;7.47;2.88;;;;;;;6.35;100.00;99243.97;5397829;26;20476;-79
2024/04/11 03:23:53;;;;;;;9.52;2.85;;;;;;;6.32;100.00;81154.56;5413565;26;20469;-80
2024/04/11 03:26:20;;;;;;;4.45;2.30;;;;;;;-141.50;100.00;63355.56;5397256;26;20460;-80
2024/04/11 03:28:47;;;;;;;5.63;2.92;;;;;;;-141.50;100.00;63355.56;5404956;26;20014;-80
2024/04/11 03:31:18;;;;;;;5.57;2.33;;;;;;;-141.50;100.00;63355.56;5399402;26;20503;-82
2024/04/11 03:33:50;;;;;;;6.70;2.40;;;;;;;-141.50;100.00;63355.56;5400160;26;20018;-80
2024/04/11 03:36:19;;;;;;;5.70;2.65;;;;;;;-141.50;100.00;63355.56;5398541;26;20015;-82
2024/04/11 03:38:47;;;;;;;7.10;3.00;;;;;;;-141.50;100.00;63355.56;5393469;26;20008;-80
2024/04/11 03:41:14;;;;;;;8.13;2.90;;;;;;;-141.50;100.00;63355.56;5401380;26;20015;-82
2024/04/11 03:43:41;;;;;;;6.25;2.58;;;;;;;-141.50;100.00;63355.56;5408467;26;20004;-82
2024/04/11 03:46:20;;;;;;;7.00;2.92;;;;;;;-141.50;100.00;63355.56;5405127;26;20000;-81
2024/04/11 03:48:51;;;;;;;6.78;2.65;;;;;;;-141.50;100.00;63355.56;5403959;26;20016;-83
2024/04/11 03:51:20;;;;;;;6.45;3.17;;;;;;;-141.50;100.00;63355.56;5412068;26;20454;-81
2024/04/11 03:53:51;;;;;;;4.53;2.40;;;;;;;-141.50;100.00;63355.56;5411190;26;20576;-80
2024/04/11 03:56:21;;;;;;;6.43;2.30;;;;;;;-141.50;100.00;63355.56;5393697;26;20377;-80
2024/04/11 03:58:50;;;;;;;6.07;2.22;;;;;;;-141.50;100.00;63355.56;5408684;26;20394;-81
2024/04/11 04:01:18;;;;;;;5.25;2.50;;;;;;;-141.50;100.00;63355.56;5413487;26;20043;-82
2024/04/11 04:03:47;;;;;;;5.57;2.67;;;;;;;-141.50;100.00;63355.56;5385589;26;20015;-81
2024/04/11 04:06:17;;;;;;;4.63;2.20;;;;;;;-141.50;100.00;63355.56;5397699;26;20004;-80
2024/04/11 04:08:46;;;;;;;8.85;2.60;;;;;;;-141.50;100.00;63355.56;5399414;26;20376;-79
2024/04/11 04:11:15;;;;;;;5.00;2.10;;;;;;;-141.50;100.00;63355.56;5402918;26;21087;-81
2024/04/11 04:13:42;;;;;;;9.20;3.13;;;;;;;-141.50;100.00;63355.56;5393344;26;20070;-82
2024/04/11 04:16:11;;;;;;;5.28;2.30;;;;;;;-141.50;100.00;63355.56;5404148;26;20606;-81
2024/04/11 04:18:50;;;;;;;4.43;2.50;;;;;;;-141.50;100.00;63355.56;5410346;26;20007;-81
2024/04/11 04:21:26;;;;;;;7.35;2.47;;;;;;;-141.50;100.00;63355.56;5411084;26;20011;-81
2024/04/11 04:23:55;;;;;;;;;;;;;;;-141.50;100.00;63355.56;5401690;26;20053;-81
2024/04/11 04:26:30;;;;;;;5.78;2.40;;;;;;;-141.50;100.00;63355.56;5400632;26;19937;-82
2024/04/11 04:28:58;;;;;;;8.73;2.55;;;;;;;-141.50;100.00;63355.56;5401278;26;20018;-81
2024/04/11 04:31:28;;;;;;;7.40;2.70;;;;;;;-141.50;100.00;63355.56;5412098;26;19999;-81
2024/04/11 04:33:57;;;;;;;5.50;2.50;;;;;;;-141.50;100.00;63355.56;5399635;26;20020;-79
2024/04/11 04:36:27;;;;;;;4.53;2.33;;;;;;;-141.50;100.00;63355.56;5397795;26;20023;-80
2024/04/11 04:38:56;;;;;;;8.02;2.47;;;;;;;-141.50;100.00;63355.56;5407346;26;20014;-82
2024/04/11 04:41:29;;;;;;;4.82;2.70;;;;;;;-141.50;100.00;63355.56;5412218;26;20032;-82
2024/04/11 04:43:57;;;;;;;6.72;2.58;;;;;;;-141.50;100.00;63355.56;5366696;26;20027;-81
2024/04/11 04:46:28;;;;;;;7.50;2.60;;;;;;;-141.50;100.00;63355.56;5407670;26;20013;-80
2024/04/11 04:49:09;;;;;;;5.68;2.30;;;;;;;-141.50;100.00;63355.56;5386674;26;20011;-82
2024/04/11 04:51:39;;;;;;;7.13;2.58;;;;;;;-141.50;100.00;63355.56;5408246;26;20018;-80
2024/04/11 04:54:10;;;;;;;6.50;2.40;;;;;;;-141.50;100.00;63355.56;5392018;26;20194;-81
2024/04/11 04:56:41;;;;;;;8.43;2.92;;;;;;;-141.50;100.00;63355.56;5404281;26;20448;-80
2024/04/11 04:59:12;;;;;;;4.97;2.50;;;;;;;-141.50;100.00;63355.56;5397359;26;19996;-81
2024/04/11 05:01:40;;;;;;;5.75;2.70;;;;;;;-141.50;100.00;63355.56;5386407;26;20014;-82
2024/04/11 05:04:13;;;;;;;11.15;4.05;;;;;;;-141.50;100.00;63355.56;5408380;26;20000;-82
2024/04/11 05:06:43;;;;;;;7.25;2.90;;;;;;;-141.50;100.00;63355.56;5397670;26;20410;-81
2024/04/11 05:09:10;;;;;;;6.63;2.95;;;;;;;-141.50;100.00;63355.56;5410950;26;20011;-80
2024/04/11 05:11:39;;;;;;;7.47;2.83;;;;;;;-141.50;100.00;63355.56;5396151;26;20023;-81
2024/04/11 05:14:07;;;;;;;8.82;3.40;;;;;;;-141.50;100.00;63355.56;5405449;26;19999;-80
2024/04/11 05:16:35;;;;;;;10.10;3.33;;;;;;;-141.50;100.00;63355.56;5400255;26;20004;-80
2024/04/11 05:19:04;;;;;;;6.53;2.92;;;;;;;-141.50;100.00;63355.56;5401225;26;20325;-81
2024/04/11 05:21:32;;;;;;;9.55;3.35;;;;;;;-141.50;100.00;63355.56;5410124;26;20011;-80
2024/04/11 05:24:00;;;;;;;9.18;3.53;;;;;;;-141.50;100.00;63355.56;5439245;26;20011;-82
2024/04/11 05:26:28;;;;;;;9.23;3.40;;;;;;;-141.50;100.00;63355.56;5368921;26;20361;-82
2024/04/11 05:28:57;;;;;;;10.93;3.90;;;;;;;-141.50;100.00;63355.56;5390887;26;20041;-80
2024/04/11 05:31:25;;;;;;;8.95;3.55;;;;;;;-141.50;100.00;63355.56;5398069;26;20007;-81
2024/04/11 05:33:55;;;;;;;8.93;3.85;;;;;;;-141.50;100.00;63355.56;5412702;26;20221;-81
2024/04/11 05:36:28;;;;;;;10.20;3.40;;;;;;;-141.50;100.00;63355.56;5390155;26;20004;-79
2024/04/11 05:38:57;;;;;;;9.43;3.45;;;;;;;-141.50;100.00;63355.56;5399927;26;20004;-80
2024/04/11 05:41:27;;;;;;;10.52;4.05;;;;;;;-141.50;100.00;63355.56;5395221;26;20008;-80
2024/04/11 05:43:56;;;;;;;10.40;3.30;;;;;;;-141.50;100.00;63355.56;5396852;26;20008;-79
2024/04/11 05:46:24;;;;;;;9.35;3.72;;;;;;;-141.50;100.00;63355.56;5389814;26;20007;-81
2024/04/11 05:48:52;;;;;;;5.47;3.08;;;;;;;-141.50;100.00;63355.56;5406876;26;20055;-80
2024/04/11 05:51:21;;;;;;;7.82;3.22;;;;;;;-141.50;100.00;63355.56;5398172;26;20686;-81
2024/04/11 05:53:49;;;;;;;7.55;3.30;;;;;;;-141.50;100.00;63355.56;5402354;26;20076;-81
2024/04/11 05:56:20;;;;;;;9.85;3.40;;;;;;;-141.50;100.00;63355.56;5409157;26;20018;-82
2024/04/11 05:58:49;;;;;;;10.63;4.00;;;;;;;-141.50;100.00;63355.56;5395135;26;20011;-81
2024/04/11 06:01:24;;;;;;;6.97;3.35;;;;;;;-141.50;100.00;63355.56;5391285;26;20015;-79
2024/04/11 06:03:54;;;;;;;12.90;4.53;;;;;;;-141.50;100.00;63355.56;5392593;26;20010;-80
2024/04/11 06:06:21;;;;;;;10.38;4.25;;;;;;;-141.50;100.00;63355.56;5432123;26;20051;-80
2024/04/11 06:08:50;;;;;;;7.95;3.90;;;;;;;-141.50;100.00;63355.56;5401369;26;20003;-80
2024/04/11 06:11:18;;;;;;;13.70;4.55;;;;;;;-141.50;100.00;63355.56;5404696;26;20046;-81
2024/04/11 06:13:48;;;;;;;8.20;2.72;;;;;;;-141.50;100.00;63355.56;5401013;26;20541;-82
2024/04/11 06:16:16;;;;;;;6.72;2.22;;;;;;;-141.50;100.00;63355.56;5414289;26;20091;-81
2024/04/11 06:18:48;;;;;;;5.40;2.00;;;;;;;-141.50;100.00;63355.56;5392450;26;20014;-80
2024/04/11 06:21:18;;;;;;;8.18;1.80;;;;;;;-141.50;100.00;63355.56;5405033;26;20185;-81
2024/04/11 06:23:46;;;;;;;3.70;1.85;;;;;;;-141.50;100.00;63355.56;5395498;26;20004;-82
2024/04/11 06:26:14;;;;;;;6.57;1.45;;;;;;;-141.50;100.00;63355.56;5392155;26;20173;-82
2024/04/11 06:28:44;;;;;;;3.85;1.35;;;;;;;-141.50;100.00;63355.56;5398537;26;20012;-82
2024/04/11 06:31:14;;;;;;;8.88;1.50;;;;;;;-141.50;100.00;63355.56;5392963;26;20327;-82
2024/04/11 06:33:42;;;;;;;4.47;1.48;;;;;;;-141.50;100.00;63355.56;5386249;26;20012;-80
2024/04/11 06:36:10;;;;;;;3.00;1.38;;;;;;;-141.50;100.00;63355.56;5403033;26;20004;-80
2024/04/11 06:38:39;;;;;;;6.65;1.52;;;;;;;-141.50;100.00;63355.56;5400110;26;20046;-80
2024/04/11 06:41:18;;;;;;;5.35;1.70;;;;;;;-141.50;100.00;63355.56;5403937;26;20008;-80
2024/04/11 06:43:46;;;;;;;3.47;1.52;;;;;;;-141.50;100.00;63355.56;5397922;26;20022;-80
2024/04/11 06:46:18;;;;;;;4.25;1.30;;;;;;;-141.50;100.00;63355.56;5397063;26;20020;-77
2024/04/11 06:48:46;;;;;;;4.55;1.20;;;;;;;-141.50;100.00;63355.56;5406427;26;20008;-81
2024/04/11 06:51:19;;;;;;;4.70;1.42;;;;;;;-141.50;100.00;63355.56;5400369;26;19999;-80
2024/04/11 06:53:47;;;;;;;5.18;1.35;;;;;;;-141.50;100.00;63355.56;5408128;26;20018;-80
2024/04/11 06:56:17;;;;;;;4.07;1.40;;;;;;;-141.50;100.00;63355.56;5411088;26;20019;-80
2024/04/11 06:58:45;;;;;;;4.43;1.17;;;;;;;-141.50;100.00;63355.56;5404909;26;20171;-79
2024/04/11 07:01:15;;;;;;;5.60;1.10;;;;;;;-141.50;100.00;63355.56;5403305;26;20363;-80
2024/04/11 07:03:43;;;;;;;2.72;1.67;;;;;;;-141.50;100.00;63355.56;5405973;26;20405;-80
2024/04/11 07:06:21;;;;;;;7.20;1.33;;;;;;;-141.50;100.00;63355.56;5396605;26;19997;-83
2024/04/11 07:08:49;;;;;;;4.47;1.30;;;;;;;-141.50;100.00;63355.56;5391304;26;20033;-81
2024/04/11 07:11:19;;;;;;;4.28;1.10;;;;;;;-141.50;100.00;63355.56;5397044;26;20004;-80
2024/04/11 07:13:55;;;;;;;5.90;1.50;;;;;;;-141.50;100.00;63355.56;5399565;26;20018;-82
2024/04/11 07:16:29;;;;;;;6.05;1.60;;;;;;;-141.50;100.00;63355.56;5406235;26;20026;-82
2024/04/11 07:18:57;;;;;;;3.75;1.17;;;;;;;-141.50;100.00;63355.56;5400827;26;20076;-80
2024/04/11 07:21:26;;;;;;;3.80;1.55;;;;;;;-141.50;100.00;63355.56;5401601;26;20000;-82
2024/04/11 07:23:55;;;;;;;5.00;1.33;;;;;;;-141.50;100.00;63355.56;5403892;26;20007;-83
2024/04/11 07:26:23;;;;;;;2.40;1.05;;;;;;;-141.50;100.00;63355.56;5403830;26;20463;-80
2024/04/11 07:28:51;;;;;;;4.97;1.35;;;;;;;-141.50;100.00;63355.56;5408447;26;20075;-78
2024/04/11 07:31:19;;;;;;;1.73;0.95;;;;;;;-141.50;100.00;63355.56;5406238;26;20043;-80
2024/04/11 07:33:48;;;;;;;4.40;1.30;;;;;;;-141.50;100.00;63355.56;5390376;26;20003;-83
2024/04/11 07:36:22;;;;;;;7.30;1.63;;;;;;;-141.50;100.00;63355.56;5396984;26;20009;-81
2024/04/11 07:38:52;;;;;;;7.22;1.60;;;;;;;-141.50;100.00;63355.56;5394783;26;19996;-82
2024/04/11 07:41:24;;;;;;;3.38;1.13;;;;;;;-141.50;100.00;63355.56;5396932;26;20059;-80
2024/04/11 07:43:55;;;;;;;7.80;1.60;;;;;;;-141.50;100.00;63355.56;5406955;26;20368;-81
2024/04/11 07:46:28;;;;;;;3.30;1.40;;;;;;;-141.50;100.00;63355.56;5398315;26;20022;-82
2024/04/11 07:49:07;;;;;;;4.97;1.20;;;;;;;-141.50;100.00;63355.56;5409644;26;20022;-80
2024/04/11 07:51:36;;;;;;;5.32;1.15;;;;;;;-141.50;100.00;63355.56;5400628;26;20378;-81
2024/04/11 07:54:04;;;;;;;6.78;1.40;;;;;;;-141.50;100.00;63355.56;5404853;26;20454;-80
2024/04/11 07:56:34;;;;;;;4.30;1.25;;;;;;;-141.50;100.00;63355.56;5405389;26;20004;-79
2024/04/11 07:59:06;;;;;;;3.88;1.25;;;;;;;-141.50;100.00;63355.56;5407738;26;20100;-80
2024/04/11 08:01:36;;;;;;;5.00;1.20;;;;;;;-141.50;100.00;63355.56;5433871;26;20008;-80
2024/04/11 08:04:05;;;;;;;5.85;1.30;;;;;;;-141.50;100.00;63355.56;5395408;26;20011;-82
2024/04/11 08:06:34;;;;;;;4.75;1.20;;;;;;;-141.50;100.00;63355.56;5408808;26;20003;-81
2024/04/11 08:09:08;;;;;;;2.10;0.95;;;;;;;-141.50;100.00;63355.56;5404184;26;20008;-79
2024/04/11 08:11:35;;;;;;;6.68;1.38;;;;;;;-141.50;100.00;63355.56;5407755;26;20054;-80
2024/04/11 08:14:06;;;;;;;6.95;1.35;;;;;;;-141.50;100.00;63355.56;5393554;26;20461;-80
2024/04/11 08:16:34;;;;;;;9.05;1.55;;;;;;;-141.50;100.00;63355.56;5409299;26;20011;-80
2024/04/11 08:19:02;;;;;;;4.53;1.27;;;;;;;-141.50;100.00;63355.56;5403367;26;20053;-80
2024/04/11 08:21:33;;;;;;;8.60;1.30;;;;;;;-141.50;100.00;63355.56;5393920;26;20345;-79
2024/04/11 08:24:00;;;;;;;6.70;1.63;;;;;;;-141.50;100.00;63355.56;5406723;26;20051;-82
2024/04/11 08:26:29;;;;;;;29.17;10.38;;;;;;;-141.50;100.00;63355.56;5409933;26;20419;-79
2024/04/11 08:28:56;;;;;;;5.05;1.23;;;;;;;-141.50;100.00;63355.56;5395329;26;20741;-81
2024/04/11 08:31:30;;;;;;;13.13;3.72;;;;;;;-141.50;100.00;63355.56;5402398;26;20332;-78
2024/04/11 08:33:58;;;;;;;5.60;1.42;;;;;;;-141.50;100.00;63355.56;5410184;26;20499;-79
2024/04/11 08:36:28;;;;;;;5.15;1.38;;;;;;;-141.50;100.00;63355.56;5407668;26;20313;-80
2024/04/11 08:38:57;;;;;;;4.50;1.23;;;;;;;-141.50;100.00;63355.56;5399142;26;20019;-81
2024/04/11 08:41:25;;;;;;;4.88;1.33;;;;;;;-141.50;100.00;63355.56;5405962;26;20003;-80
2024/04/11 08:43:56;;;;;;;3.45;0.98;;;;;;;-141.50;100.00;63355.56;5402304;26;20007;-80
2024/04/11 08:46:24;;;;;;;2.47;1.30;;;;;;;-141.50;100.00;63355.56;5391634;26;20019;-78
2024/04/11 08:48:53;;;;;;;6.72;3.60;;;;;;;-141.50;100.00;63355.56;5406174;26;20581;-80
2024/04/11 08:51:22;;;;;;;4.43;0.93;;;;;;;-141.50;100.00;63355.56;5412381;26;20057;-79
2024/04/11 08:53:54;;;;;;;3.95;1.08;;;;;;;-141.50;100.00;63355.56;5409940;26;20440;-80
2024/04/11 08:56:31;;;;;;;4.47;1.13;;;;;;;-141.50;100.00;63355.56;5408871;26;20456;-79
2024/04/11 08:58:59;;;;;;;6.78;1.13;;;;;;;-141.50;100.00;63355.56;5386763;26;20495;-80
2024/04/11 09:01:26;;;;;;;5.65;1.20;;;;;;;-141.50;100.00;63355.56;5393975;26;20005;-79
2024/04/11 09:03:53;;;;;;;3.35;1.05;;;;;;;-141.50;100.00;63355.56;5393798;26;20057;-79
2024/04/11 09:06:30;;;;;;;5.68;1.30;;;;;;;-141.50;100.00;63355.56;5406724;26;20012;-79
2024/04/11 09:09:07;;;;;;;4.18;1.38;;;;;;;-141.50;100.00;63355.56;5400619;26;20297;-81
2024/04/11 09:11:34;;;;;;;2.55;1.00;;;;;;;-141.50;100.00;63355.56;5392887;26;20019;-80
2024/04/11 09:14:02;;;;;;;5.22;1.20;;;;;;;-141.50;100.00;63355.56;5408723;26;20076;-80
2024/04/11 09:16:29;;;;;;;3.90;1.10;;;;;;;-141.50;100.00;63355.56;5396978;26;20003;-81
2024/04/11 09:19:05;;;;;;;4.40;0.93;;;;;;;-141.50;100.00;63355.56;5393431;26;20076;-83
2024/04/11 09:21:32;;;;;;;;;;;;;;;-141.50;100.00;63355.56;5405282;26;20000;-82
2024/04/11 09:23:59;;;;;;;7.13;1.13;;;;;;;-141.50;100.00;63355.56;5404259;26;19932;-81
2024/04/11 09:26:29;;;;;;;4.05;1.17;;;;;;;-141.50;100.00;63355.56;5408559;26;20022;-81
2024/04/11 09:28:56;;;;;;;3.65;1.10;;;;;;;-141.50;100.00;63355.56;5404586;26;20022;-81
2024/04/11 09:31:26;;;;;;;4.45;0.98;;;;;;;-141.50;100.00;63355.56;5397146;26;20452;-81
2024/04/11 09:33:57;;;;;;;5.95;0.80;;;;;;;-141.50;100.00;63355.56;5400357;26;20015;-80
2024/04/11 09:36:31;;;;;;;2.60;0.90;;;;;;;-141.50;100.00;63355.56;5395194;26;20025;-81
2024/04/11 09:39:12;;;;;;;1.63;0.70;;;;;;;-141.50;100.00;63355.56;5398151;26;20014;-82
2024/04/11 09:41:50;;;;;;;3.42;1.40;;;;;;;-141.50;100.00;63355.56;5405116;26;20008;-82
2024/04/11 09:44:19;;;;;;;7.63;1.42;;;;;;;-141.50;100.00;63355.56;5366293;26;20011;-81
2024/04/11 09:46:48;;;;;;;6.80;1.10;;;;;;;-141.50;100.00;63355.56;5403138;26;20012;-80
2024/04/11 09:49:23;;;;;;;2.70;0.70;;;;;;;-141.50;100.00;63355.56;5380488;26;20457;-82
2024/04/11 09:51:51;;;;;;;3.58;0.98;;;;;;;-141.50;100.00;63355.56;5390068;26;20407;-81
2024/04/11 09:54:19;;;;;;;4.13;1.20;;;;;;;-141.50;100.00;63355.56;5402507;26;20058;-81
2024/04/11 09:56:46;;;;;;;4.13;1.10;;;;;;;-141.50;100.00;63355.56;5397476;26;20371;-80
2024/04/11 09:59:15;;;;;;;2.67;1.00;;;;;;;-141.50;100.00;63355.56;5395574;26;20003;-81
2024/04/11 10:01:46;;;;;;;2.70;0.90;;;;;;;-141.50;100.00;63355.56;5405553;26;20036;-80
2024/04/11 10:04:24;;;;;;;2.95;1.17;;;;;;;-141.50;100.00;63355.56;5395872;26;20016;-81
2024/04/11 10:06:52;;;;;;;2.72;0.65;;;;;;;-141.50;100.00;63355.56;5408047;26;20016;-82
2024/04/11 10:09:29;;;;;;;5.97;1.00;;;;;;;-141.50;100.00;63355.56;5399498;26;20003;-83
2024/04/11 10:12:04;;;;;;;4.30;0.93;;;;;;;-141.50;100.00;63355.56;5391348;26;20046;-82
2024/04/11 10:14:33;;;;;;;;;;;;;;;-141.50;100.00;63355.56;5407055;26;20003;-81
2024/04/11 10:17:04;;;;;;;3.78;0.65;;;;;;;-141.50;100.00;63355.56;5401691;26;19937;-80
2024/04/11 10:19:38;;;;;;;4.05;1.10;;;;;;;-141.50;100.00;63355.56;5409575;26;20069;-81
2024/04/11 10:22:07;;;;;;;4.53;0.80;;;;;;;-141.50;100.00;63355.56;5405241;26;19996;-81
2024/04/11 10:24:38;;;;;;;1.80;1.00;;;;;;;-141.50;100.00;63355.56;5399628;26;20495;-81
2024/04/11 10:27:10;;;;;;;3.20;0.98;;;;;;;-141.50;100.00;63355.56;5399481;26;20282;-82
2024/04/11 10:29:49;;;;;;;5.50;1.25;;;;;;;-141.50;100.00;63355.56;5408262;26;20332;-79
2024/04/11 10:32:22;;;;;;;4.10;1.00;;;;;;;-141.50;100.00;63355.56;5380489;26;20007;-82
2024/04/11 10:34:57;;;;;;;3.67;1.10;;;;;;;-141.50;100.00;63355.56;5399366;26;20227;-83
2024/04/11 10:37:29;;;;;;;4.68;0.77;;;;;;;-141.50;100.00;63355.56;5389856;26;19996;-82
2024/04/11 10:39:58;;;;;;;3.40;1.13;;;;;;;-141.50;100.00;63355.56;5410436;26;20031;-82
2024/04/11 10:42:36;;;;;;;5.22;1.10;;;;;;;-141.50;100.00;63355.56;5402252;26;20482;-82
2024/04/11 10:45:07;;;;;;;5.47;1.30;;;;;;;-141.50;100.00;63355.56;5409683;26;19996;-82
2024/04/11 10:47:38;;;;;;;4.95;1.20;;;;;;;-141.50;100.00;63355.56;5402033;26;20055;-82
2024/04/11 10:50:09;;;;;;;2.60;1.00;;;;;;;-141.50;100.00;63355.56;5397154;26;20007;-80
2024/04/11 10:52:38;;;;;;;4.07;1.20;;;;;;;-141.50;100.00;63355.56;5410033;26;20014;-81
2024/04/11 10:55:12;;;;;;;3.00;0.80;;;;;;;-141.50;100.00;63355.56;5387658;26;20324;-80
2024/04/11 10:57:44;;;;;;;2.63;1.10;;;;;;;-141.50;100.00;63355.56;5397414;26;20021;-82
2024/04/11 11:00:12;;;;;;;2.92;1.02;;;;;;;-141.50;100.00;63355.56;5364473;26;20398;-81
2024/04/11 11:03:11;;;;;;;3.78;1.10;;;;;;;-141.50;100.00;63355.56;5396850;26;20018;-81
2024/04/11 11:05:42;;;;;;;3.13;1.15;;;;;;;-141.50;100.00;63355.56;5401233;26;20004;-82
2024/04/11 11:08:10;;;;;;;6.60;0.90;;;;;;;-141.50;100.00;63355.56;5401054;26;20028;-82
2024/04/11 11:10:41;;;;;;;4.72;1.10;;;;;;;-141.50;100.00;63355.56;5402959;26;20350;-82
2024/04/11 11:13:08;;;;;;;7.25;1.40;;;;;;;-141.50;100.00;63355.56;5405422;26;19999;-82
2024/04/11 11:15:35;;;;;;;5.15;1.15;;;;;;;-141.50;100.00;63355.56;5401633;26;20481;-80
2024/04/11 11:18:06;;;;;;;4.22;1.33;;;;;;;-141.50;100.00;63355.56;5410014;26;20011;-80
2024/04/11 11:20:35;;;;;;;4.53;1.27;;;;;;;-141.50;100.00;63355.56;5430037;26;20078;-81
2024/04/11 11:23:04;;;;;;;5.45;1.30;;;;;;;-141.50;100.00;63355.56;5426153;26;20007;-82
2024/04/11 11:25:32;;;;;;;4.03;1.33;;;;;;;-141.50;100.00;63355.56;5388146;26;20008;-82
2024/04/11 11:28:01;;;;;;;3.35;1.10;;;;;;;-141.50;100.00;63355.56;5384989;26;20007;-82